Time;durP1;ratioP1;P1;durP2;ratioP2;P2;SDS_P1;SDS_P2;PMS_P1;PMS_P2;Temp;Humidity;BMP_temperature;BMP_pressure;BME280_temperature;BME280_humidity;BME280_pressure;Samples;Min_cycle;Max_cycle;Signal;HPM_P1;HPM_P2
2023/09/04 00:00:53;;;;;;;5.50;3.67;;;;;;;13.94;96.57;102621.69;4978509;28;20727;-74
2023/09/04 00:03:20;;;;;;;4.95;4.30;;;;;;;13.85;96.85;102632.44;4979149;28;20403;-75
2023/09/04 00:05:48;;;;;;;5.47;4.57;;;;;;;13.79;97.92;102627.22;4974491;28;20120;-75
2023/09/04 00:08:16;;;;;;;5.82;4.93;;;;;;;13.75;98.52;102626.41;4967227;28;20518;-75
2023/09/04 00:10:43;;;;;;;7.50;4.97;;;;;;;13.72;99.16;102637.06;4966874;28;20038;-75
2023/09/04 00:13:12;;;;;;;7.00;5.32;;;;;;;13.70;99.83;102632.66;4968663;28;20116;-75
2023/09/04 00:15:39;;;;;;;6.50;5.20;;;;;;;13.68;100.00;102627.41;4973394;28;20039;-74
2023/09/04 00:18:07;;;;;;;6.63;5.20;;;;;;;13.69;100.00;102625.63;4973313;28;20047;-76
2023/09/04 00:20:35;;;;;;;7.97;5.25;;;;;;;13.69;100.00;102629.16;4972168;28;20776;-75
2023/09/04 00:23:02;;;;;;;7.68;5.65;;;;;;;13.68;100.00;102629.19;4968238;28;20045;-75
2023/09/04 00:25:29;;;;;;;7.05;5.88;;;;;;;13.63;100.00;102622.16;4979693;28;20038;-75
2023/09/04 00:27:57;;;;;;;7.15;5.80;;;;;;;13.63;100.00;102621.31;4968578;28;20070;-75
2023/09/04 00:30:25;;;;;;;8.25;5.53;;;;;;;13.60;100.00;102624.00;4961439;28;20042;-75
2023/09/04 00:32:52;;;;;;;6.32;5.60;;;;;;;13.59;100.00;102622.25;4973961;28;20047;-74
2023/09/04 00:35:21;;;;;;;7.25;5.80;;;;;;;13.58;100.00;102620.47;4961611;28;20434;-75
2023/09/04 00:37:49;;;;;;;6.05;5.43;;;;;;;13.55;100.00;102618.75;4978418;28;20124;-75
2023/09/04 00:40:16;;;;;;;7.03;5.68;;;;;;;13.51;100.00;102620.59;4963131;28;20047;-74
2023/09/04 00:42:43;;;;;;;6.80;5.63;;;;;;;13.49;100.00;102616.19;4965353;28;20039;-76
2023/09/04 00:45:12;;;;;;;6.45;5.35;;;;;;;13.50;100.00;102612.63;4959058;28;20502;-75
2023/09/04 00:47:44;;;;;;;6.93;5.70;;;;;;;13.47;100.00;102610.06;4961837;28;20662;-75
2023/09/04 00:50:19;;;;;;;7.03;5.93;;;;;;;13.44;100.00;102610.09;4973672;28;20423;-76
2023/09/04 00:52:50;;;;;;;7.43;5.95;;;;;;;13.46;100.00;102613.59;4957971;28;20137;-75
2023/09/04 00:55:18;;;;;;;6.55;5.88;;;;;;;13.46;100.00;102622.41;4985517;28;20038;-76
2023/09/04 00:57:46;;;;;;;7.32;5.90;;;;;;;13.44;100.00;102618.91;4970006;28;20081;-76
2023/09/04 01:00:14;;;;;;;7.63;5.85;;;;;;;13.44;100.00;102615.38;4969987;28;20090;-75
2023/09/04 01:02:42;;;;;;;7.60;5.78;;;;;;;13.44;100.00;102615.38;4963817;28;20124;-75
2023/09/04 01:05:09;;;;;;;8.02;6.78;;;;;;;13.46;100.00;102616.25;4968167;28;20254;-74
2023/09/04 01:07:40;;;;;;;6.90;5.72;;;;;;;13.46;100.00;102616.25;4971408;28;20185;-73
2023/09/04 01:10:13;;;;;;;7.72;6.45;;;;;;;13.43;100.00;102606.56;4973697;28;20078;-74
2023/09/04 01:13:06;;;;;;;8.98;6.30;;;;;;;13.43;100.00;102608.34;4962852;28;20043;-74
2023/09/04 01:15:35;;;;;;;8.85;6.68;;;;;;;13.42;100.00;102612.78;4952033;28;20517;-73
2023/09/04 01:18:02;;;;;;;7.53;6.43;;;;;;;13.40;100.00;102598.66;4982302;28;20050;-74
2023/09/04 01:20:31;;;;;;;7.07;6.38;;;;;;;13.37;100.00;102598.66;4968490;28;20043;-74
2023/09/04 01:22:59;;;;;;;8.93;6.75;;;;;;;13.34;100.00;102602.25;4972030;28;20054;-74
2023/09/04 01:25:45;;;;;;;8.40;6.88;;;;;;;13.31;100.00;102604.94;4975016;28;20144;-74
2023/09/04 01:28:31;;;;;;;7.65;6.35;;;;;;;13.28;100.00;102601.44;4969592;28;20047;-73
2023/09/04 01:31:11;;;;;;;8.18;7.05;;;;;;;13.24;100.00;102602.38;4971099;28;20047;-74
2023/09/04 01:33:45;;;;;;;9.80;7.60;;;;;;;13.24;100.00;102595.31;4971013;28;20042;-77
2023/09/04 01:36:16;;;;;;;8.30;7.20;;;;;;;13.24;100.00;102600.63;4975148;28;20054;-77
2023/09/04 01:38:46;;;;;;;8.82;6.80;;;;;;;13.24;100.00;102602.38;4977116;28;20061;-77
2023/09/04 01:41:15;;;;;;;8.30;7.03;;;;;;;13.18;100.00;102612.16;4950324;28;20039;-77
2023/09/04 01:43:42;;;;;;;8.27;7.47;;;;;;;13.15;100.00;102613.97;4963658;28;20644;-76
2023/09/04 01:46:09;;;;;;;7.90;7.00;;;;;;;13.13;100.00;102607.81;4971573;28;20047;-77
2023/09/04 01:48:37;;;;;;;7.78;6.97;;;;;;;13.14;100.00;102609.56;4978821;28;20050;-77
2023/09/04 01:51:04;;;;;;;8.23;7.25;;;;;;;13.16;100.00;102602.50;4972308;28;20066;-78
2023/09/04 01:53:31;;;;;;;9.50;7.25;;;;;;;13.14;100.00;102594.56;4983041;28;20057;-76
2023/09/04 01:55:59;;;;;;;8.95;7.97;;;;;;;13.16;100.00;102589.25;4971877;28;20105;-75
2023/09/04 01:58:28;;;;;;;8.45;7.15;;;;;;;13.15;100.00;102585.72;4972187;28;20050;-75
2023/09/04 02:00:55;;;;;;;10.15;7.28;;;;;;;13.15;100.00;102590.16;4974696;28;20046;-75
2023/09/04 02:03:22;;;;;;;8.45;7.18;;;;;;;13.14;100.00;102591.03;4970478;28;20046;-75
2023/09/04 02:05:49;;;;;;;9.77;7.65;;;;;;;13.10;100.00;102592.84;4955201;28;20043;-76
2023/09/04 02:08:16;;;;;;;10.50;7.93;;;;;;;13.12;100.00;102592.81;4987733;28;20101;-76
2023/09/04 02:10:44;;;;;;;10.30;7.82;;;;;;;13.11;100.00;102589.31;4984766;28;20042;-75
2023/09/04 02:13:11;;;;;;;9.63;8.20;;;;;;;13.13;100.00;102589.28;4959567;28;20042;-75
2023/09/04 02:15:39;;;;;;;8.70;7.80;;;;;;;13.16;100.00;102587.47;4969396;28;20043;-75
2023/09/04 02:18:06;;;;;;;8.20;7.40;;;;;;;13.21;100.00;102587.41;4969495;28;20066;-75
2023/09/04 02:20:33;;;;;;;8.70;7.85;;;;;;;13.23;100.00;102590.91;4976156;28;20122;-76
2023/09/04 02:23:01;;;;;;;9.05;7.88;;;;;;;13.24;100.00;102589.13;4974638;28;20133;-76
2023/09/04 02:25:29;;;;;;;11.02;7.15;;;;;;;13.24;100.00;102600.63;4986566;28;20038;-75
2023/09/04 02:27:56;;;;;;;9.57;8.40;;;;;;;13.26;100.00;102595.28;4958043;28;20070;-75
2023/09/04 02:30:23;;;;;;;8.20;7.10;;;;;;;13.29;100.00;102596.13;4974811;28;20567;-76
2023/09/04 02:32:58;;;;;;;8.90;8.00;;;;;;;13.33;100.00;102603.13;4975408;28;20047;-76
2023/09/04 02:35:27;;;;;;;9.38;8.10;;;;;;;13.37;100.00;102593.38;4977806;28;20050;-76
2023/09/04 02:37:54;;;;;;;9.93;8.40;;;;;;;13.38;100.00;102596.91;4979940;28;20411;-76
2023/09/04 02:40:21;;;;;;;9.60;8.60;;;;;;;13.38;100.00;102586.31;4961752;28;20130;-76
2023/09/04 02:42:48;;;;;;;10.60;9.23;;;;;;;13.41;100.00;102587.19;4969319;28;20046;-76
2023/09/04 02:45:15;;;;;;;9.23;8.30;;;;;;;13.39;100.00;102588.97;4975987;28;20050;-76
2023/09/04 02:47:43;;;;;;;11.48;9.07;;;;;;;13.39;100.00;102574.78;4962240;28;20043;-79
2023/09/04 02:50:10;;;;;;;9.45;8.35;;;;;;;13.38;100.00;102576.59;4971223;28;20058;-76
2023/09/04 02:52:38;;;;;;;10.07;9.05;;;;;;;13.40;100.00;102587.19;4954154;28;20465;-76
2023/09/04 02:55:06;;;;;;;12.30;9.50;;;;;;;13.39;100.00;102583.66;4954540;28;20054;-75
2023/09/04 02:57:34;;;;;;;11.55;9.10;;;;;;;13.38;100.00;102581.88;4971777;28;20031;-75
2023/09/04 03:00:06;;;;;;;10.82;9.73;;;;;;;13.39;100.00;102578.38;4967309;28;20071;-77
2023/09/04 03:02:34;;;;;;;11.85;9.63;;;;;;;13.40;100.00;102584.53;4964067;28;20546;-76
2023/09/04 03:05:02;;;;;;;11.52;10.35;;;;;;;13.41;100.00;102586.28;4974442;28;20580;-76
2023/09/04 03:07:29;;;;;;;11.20;10.10;;;;;;;13.39;100.00;102583.66;4968789;28;20612;-76
2023/09/04 03:09:59;;;;;;;12.35;11.05;;;;;;;13.33;100.00;102583.69;4982052;28;20050;-77
2023/09/04 03:12:29;;;;;;;12.85;10.65;;;;;;;13.24;100.00;102584.72;4956759;28;20176;-76
2023/09/04 03:14:59;;;;;;;12.77;10.52;;;;;;;13.15;100.00;102580.41;4940056;28;20046;-76
2023/09/04 03:17:32;;;;;;;11.77;10.68;;;;;;;13.10;100.00;102579.63;4960889;28;21856;-75
2023/09/04 03:20:00;;;;;;;12.38;11.07;;;;;;;13.07;100.00;102581.44;4972385;28;20042;-77
2023/09/04 03:22:27;;;;;;;13.00;11.35;;;;;;;13.02;100.00;102579.72;4983047;28;20042;-76
2023/09/04 03:24:55;;;;;;;13.00;11.70;;;;;;;13.00;100.00;102573.56;4952610;28;20130;-76
2023/09/04 03:27:26;;;;;;;13.13;11.65;;;;;;;12.98;100.00;102575.34;4934693;28;20074;-76
2023/09/04 03:29:54;;;;;;;13.30;11.90;;;;;;;13.00;100.00;102567.41;4966627;28;20045;-76
2023/09/04 03:32:22;;;;;;;13.65;11.60;;;;;;;13.02;100.00;102566.47;4960884;28;20046;-76
2023/09/04 03:34:49;;;;;;;14.75;13.25;;;;;;;13.08;100.00;102564.63;4982325;28;20054;-75
2023/09/04 03:37:16;;;;;;;14.48;12.73;;;;;;;13.11;100.00;102557.53;4979249;28;20573;-75
2023/09/04 03:39:43;;;;;;;14.68;12.30;;;;;;;13.17;100.00;102553.94;4978354;28;20069;-75
2023/09/04 03:42:10;;;;;;;17.25;14.18;;;;;;;13.24;100.00;102549.41;4962867;28;20050;-75
2023/09/04 03:44:37;;;;;;;15.30;13.68;;;;;;;13.29;100.00;102552.88;4966481;28;20631;-75
2023/09/04 03:47:05;;;;;;;15.68;13.75;;;;;;;13.32;100.00;102551.06;4972709;28;20121;-75
2023/09/04 03:49:32;;;;;;;17.40;14.48;;;;;;;13.36;100.00;102544.81;4969448;28;20109;-75
2023/09/04 03:52:00;;;;;;;16.20;14.38;;;;;;;13.36;100.00;102542.19;4968829;28;20067;-75
2023/09/04 03:54:29;;;;;;;17.13;14.15;;;;;;;13.36;100.00;102550.13;4962361;28;20134;-76
2023/09/04 03:56:57;;;;;;;15.25;13.65;;;;;;;13.38;100.00;102550.09;4942051;28;20435;-76
2023/09/04 03:59:24;;;;;;;15.27;13.40;;;;;;;13.31;100.00;102544.00;4975502;28;20046;-76
2023/09/04 04:01:52;;;;;;;18.30;14.93;;;;;;;13.25;100.00;102546.75;4960114;28;20043;-75
2023/09/04 04:04:19;;;;;;;16.63;14.40;;;;;;;13.19;100.00;102542.41;4973233;28;20038;-76
2023/09/04 04:06:46;;;;;;;17.23;15.20;;;;;;;13.17;100.00;102546.00;4963292;28;20041;-76
2023/09/04 04:09:15;;;;;;;17.25;14.15;;;;;;;13.13;100.00;102537.19;4935973;28;20294;-75
2023/09/04 04:11:43;;;;;;;19.20;15.20;;;;;;;13.10;100.00;102537.25;4982839;28;20045;-75
2023/09/04 04:14:11;;;;;;;16.63;14.70;;;;;;;13.05;100.00;102545.25;4949071;28;20089;-75
2023/09/04 04:16:38;;;;;;;16.40;14.27;;;;;;;13.03;100.00;102535.56;4961398;28;20148;-76
2023/09/04 04:19:06;;;;;;;15.70;13.95;;;;;;;13.03;100.00;102541.75;4957318;28;20707;-75
2023/09/04 04:21:33;;;;;;;17.63;14.63;;;;;;;13.02;100.00;102540.00;4967560;28;20287;-75
2023/09/04 04:24:00;;;;;;;17.05;14.77;;;;;;;12.98;100.00;102538.28;4941814;28;20046;-75
2023/09/04 04:26:28;;;;;;;17.95;16.15;;;;;;;12.95;100.00;102542.75;4941996;28;20149;-75
2023/09/04 04:28:55;;;;;;;18.73;16.73;;;;;;;12.94;100.00;102548.94;4971805;28;20081;-75
2023/09/04 04:31:22;;;;;;;19.70;16.75;;;;;;;12.89;100.00;102535.75;4972750;28;20133;-75
2023/09/04 04:33:49;;;;;;;23.05;17.98;;;;;;;12.88;100.00;102539.28;4964614;28;20050;-74
2023/09/04 04:36:18;;;;;;;19.73;17.05;;;;;;;12.85;100.00;102540.22;4955617;28;20130;-74
2023/09/04 04:38:47;;;;;;;19.13;16.80;;;;;;;12.87;100.00;102542.88;4972970;28;20552;-75
2023/09/04 04:41:17;;;;;;;17.73;15.82;;;;;;;12.87;100.00;102546.38;4959366;28;20573;-75
2023/09/04 04:43:44;;;;;;;20.63;16.35;;;;;;;12.91;100.00;102541.06;4965552;28;20465;-79
2023/09/04 04:46:14;;;;;;;18.13;14.90;;;;;;;12.93;100.00;102550.72;4961473;28;20042;-75
2023/09/04 04:48:44;;;;;;;18.98;14.90;;;;;;;12.98;100.00;102548.00;4948341;28;20042;-73
2023/09/04 04:51:11;;;;;;;19.88;16.40;;;;;;;12.98;100.00;102548.88;4963910;28;20511;-72
2023/09/04 04:53:40;;;;;;;17.75;16.00;;;;;;;12.97;100.00;102554.19;4948256;28;20129;-73
2023/09/04 04:56:08;;;;;;;18.50;16.50;;;;;;;12.95;100.00;102548.03;4970266;28;20574;-70
2023/09/04 04:58:35;;;;;;;18.45;16.02;;;;;;;12.95;100.00;102542.75;4949327;28;21432;-70
2023/09/04 05:01:06;;;;;;;18.83;15.82;;;;;;;12.94;100.00;102543.63;4960970;28;20077;-70
2023/09/04 05:03:37;;;;;;;16.67;14.95;;;;;;;12.88;100.00;102541.94;4947984;28;20058;-71
2023/09/04 05:06:08;;;;;;;20.38;15.63;;;;;;;12.86;100.00;102549.06;4949108;28;20042;-71
2023/09/04 05:08:36;;;;;;;17.25;15.05;;;;;;;12.82;100.00;102540.25;4961947;28;20040;-70
2023/09/04 05:11:05;;;;;;;17.42;15.25;;;;;;;12.77;100.00;102547.38;4962615;28;20031;-71
2023/09/04 05:13:36;;;;;;;17.83;14.90;;;;;;;12.91;100.00;102538.41;4946945;28;20047;-70
2023/09/04 05:16:04;;;;;;;15.20;13.65;;;;;;;13.71;100.00;102541.66;4963286;28;20125;-72
2023/09/04 05:18:34;;;;;;;15.60;13.75;;;;;;;13.91;100.00;102541.34;4946075;28;20041;-70
2023/09/04 05:21:07;;;;;;;15.35;13.30;;;;;;;14.72;97.88;102533.66;4966788;28;20055;-70
2023/09/04 05:23:34;;;;;;;15.52;12.55;;;;;;;15.68;92.26;102533.25;4955621;28;20043;-70
2023/09/04 05:26:02;;;;;;;13.80;11.35;;;;;;;15.32;91.40;102530.56;4964776;28;20042;-70
2023/09/04 05:28:29;;;;;;;12.57;11.10;;;;;;;14.72;93.37;102535.41;4963731;28;20047;-70
2023/09/04 05:31:06;;;;;;;14.68;11.32;;;;;;;14.36;95.29;102537.88;4965667;28;20047;-70
2023/09/04 05:33:33;;;;;;;15.50;12.20;;;;;;;14.11;96.28;102539.22;4969257;28;20524;-70
2023/09/04 05:36:00;;;;;;;13.10;11.70;;;;;;;13.98;97.04;102537.69;4951460;28;20053;-70
2023/09/04 05:38:28;;;;;;;13.80;12.07;;;;;;;13.93;97.83;102539.53;4971954;28;20039;-70
2023/09/04 05:40:55;;;;;;;14.43;12.73;;;;;;;13.96;98.58;102529.75;4958845;28;20644;-70
2023/09/04 05:43:22;;;;;;;17.33;13.38;;;;;;;14.05;98.92;102530.50;4969872;28;20057;-70
2023/09/04 05:45:49;;;;;;;16.50;13.50;;;;;;;14.11;98.92;102530.38;4962979;28;20050;-70
2023/09/04 05:48:17;;;;;;;19.60;13.55;;;;;;;14.22;99.35;102527.53;4970218;28;20121;-70
2023/09/04 05:50:44;;;;;;;17.67;13.77;;;;;;;14.36;99.01;102524.63;4969058;28;20594;-70
2023/09/04 05:53:15;;;;;;;16.00;13.20;;;;;;;14.50;98.20;102521.69;4969522;28;20058;-71
2023/09/04 05:55:42;;;;;;;15.82;13.90;;;;;;;14.53;97.56;102525.16;4955880;28;20125;-71
2023/09/04 05:58:11;;;;;;;17.33;13.02;;;;;;;14.52;97.11;102517.22;4971342;28;20077;-71
2023/09/04 06:00:38;;;;;;;14.93;13.18;;;;;;;14.51;96.90;102526.09;4967542;28;20046;-71
2023/09/04 06:03:09;;;;;;;14.40;12.70;;;;;;;14.53;97.19;102526.94;4966853;28;20062;-71
2023/09/04 06:05:36;;;;;;;17.88;12.43;;;;;;;14.57;97.31;102539.22;4969133;28;20047;-71
2023/09/04 06:08:04;;;;;;;15.05;12.57;;;;;;;14.60;97.15;102545.34;4968520;28;20039;-71
2023/09/04 06:10:31;;;;;;;13.32;11.93;;;;;;;14.65;97.13;102533.75;4972273;28;20098;-71
2023/09/04 06:12:58;;;;;;;15.23;12.45;;;;;;;14.69;96.96;102540.81;4965447;28;20125;-71
2023/09/04 06:15:25;;;;;;;14.55;12.20;;;;;;;14.75;96.90;102543.31;4974643;28;20050;-71
2023/09/04 06:17:53;;;;;;;12.57;10.60;;;;;;;14.81;97.13;102535.22;4962525;28;20039;-71
2023/09/04 06:20:20;;;;;;;16.58;12.98;;;;;;;14.88;96.83;102531.53;4951645;28;20054;-71
2023/09/04 06:22:47;;;;;;;12.13;10.77;;;;;;;14.98;96.31;102532.19;4952582;28;20043;-71
2023/09/04 06:25:14;;;;;;;12.23;10.48;;;;;;;15.05;96.35;102533.84;4968195;28;20433;-71
2023/09/04 06:27:41;;;;;;;14.13;11.13;;;;;;;15.14;96.31;102534.53;4974792;28;20602;-71
2023/09/04 06:30:09;;;;;;;12.35;10.98;;;;;;;15.22;96.41;102525.47;4982065;28;20129;-71
2023/09/04 06:32:36;;;;;;;13.60;10.60;;;;;;;15.33;96.23;102530.53;4966890;28;20066;-71
2023/09/04 06:35:04;;;;;;;12.75;9.50;;;;;;;15.45;95.73;102520.53;4971328;28;20047;-71
2023/09/04 06:37:31;;;;;;;11.50;9.00;;;;;;;15.56;95.52;102530.88;4974700;28;20050;-71
2023/09/04 06:39:58;;;;;;;13.48;9.77;;;;;;;15.67;95.24;102532.38;4974777;28;20050;-71
2023/09/04 06:42:25;;;;;;;15.25;9.63;;;;;;;15.80;94.98;102534.72;4977594;28;20054;-71
2023/09/04 06:44:52;;;;;;;9.73;8.52;;;;;;;15.94;93.64;102532.63;4981669;28;20168;-71
2023/09/04 06:47:19;;;;;;;9.40;8.48;;;;;;;16.04;92.95;102524.41;4971997;28;20069;-71
2023/09/04 06:49:46;;;;;;;9.90;8.07;;;;;;;16.14;93.31;102523.25;4968006;28;20080;-71
2023/09/04 06:52:13;;;;;;;11.85;8.93;;;;;;;16.25;92.99;102522.94;4974435;28;20050;-71
2023/09/04 06:54:40;;;;;;;11.02;7.82;;;;;;;16.34;92.29;102525.34;4959462;28;20403;-71
2023/09/04 06:57:07;;;;;;;9.95;7.88;;;;;;;16.43;92.56;102518.91;4966892;28;20410;-71
2023/09/04 06:59:34;;;;;;;9.95;7.60;;;;;;;16.54;92.53;102524.78;4976304;28;20046;-70
2023/09/04 07:02:01;;;;;;;8.88;6.97;;;;;;;16.65;91.58;102523.59;4978230;28;20047;-71
2023/09/04 07:04:30;;;;;;;11.80;7.78;;;;;;;16.72;91.73;102523.38;4964518;28;20184;-71
2023/09/04 07:06:57;;;;;;;11.65;7.00;;;;;;;16.82;90.75;102523.97;4981096;28;20046;-71
2023/09/04 07:09:24;;;;;;;9.10;7.15;;;;;;;16.90;90.58;102515.75;4956929;28;20098;-71
2023/09/04 07:11:52;;;;;;;7.95;6.70;;;;;;;16.99;90.49;102522.63;4965179;28;20091;-71
2023/09/04 07:14:19;;;;;;;11.73;6.63;;;;;;;17.11;90.30;102518.72;4953378;28;20210;-71
2023/09/04 07:16:46;;;;;;;10.25;6.90;;;;;;;17.21;89.85;102523.69;4976311;28;20562;-71
2023/09/04 07:19:33;;;;;;;9.63;6.00;;;;;;;17.37;88.38;102528.53;4976400;28;20177;-71
2023/09/04 07:22:00;;;;;;;9.68;5.68;;;;;;;17.47;88.02;102519.31;4985154;28;20620;-71
2023/09/04 07:24:28;;;;;;;7.28;5.90;;;;;;;17.58;88.27;102521.63;4962292;28;20148;-71
2023/09/04 07:26:55;;;;;;;7.78;5.93;;;;;;;17.70;87.84;102526.56;4980113;28;20087;-72
2023/09/04 07:29:22;;;;;;;6.53;5.60;;;;;;;17.85;85.45;102527.81;4967839;28;20043;-71
2023/09/04 07:31:49;;;;;;;9.30;5.50;;;;;;;17.95;85.68;102536.41;4975791;28;20140;-71
2023/09/04 07:34:17;;;;;;;10.63;5.63;;;;;;;18.07;84.65;102534.22;4974271;28;20081;-72
2023/09/04 07:36:44;;;;;;;5.70;5.10;;;;;;;18.16;83.77;102533.94;4981155;28;20043;-71
2023/09/04 07:39:11;;;;;;;9.57;5.35;;;;;;;18.26;84.51;102537.13;4968744;28;20043;-71
2023/09/04 07:41:38;;;;;;;8.68;5.15;;;;;;;18.39;84.36;102534.88;4966550;28;20587;-71
2023/09/04 07:44:05;;;;;;;5.90;4.82;;;;;;;18.53;83.36;102539.72;4947159;28;20058;-72
2023/09/04 07:46:33;;;;;;;8.15;5.03;;;;;;;18.65;83.41;102535.72;4970714;28;20046;-71
2023/09/04 07:49:00;;;;;;;7.38;4.65;;;;;;;18.74;83.37;102540.72;4983881;28;20154;-71
2023/09/04 07:51:27;;;;;;;8.30;4.60;;;;;;;18.88;82.66;102548.19;4985291;28;20058;-72
2023/09/04 07:54:03;;;;;;;5.95;4.57;;;;;;;19.01;81.65;102549.50;4970713;28;20072;-71
2023/09/04 07:56:31;;;;;;;6.15;4.57;;;;;;;19.13;80.50;102539.28;4975625;28;20494;-71
2023/09/04 07:59:07;;;;;;;8.13;4.47;;;;;;;19.24;80.82;102539.69;4979151;28;20343;-72
2023/09/04 08:01:35;;;;;;;6.18;4.50;;;;;;;19.36;80.17;102539.19;4976064;28;20487;-71
2023/09/04 08:04:02;;;;;;;5.88;4.40;;;;;;;19.48;78.13;102536.97;4974110;28;20498;-71
2023/09/04 08:06:30;;;;;;;5.03;4.07;;;;;;;19.58;79.30;102534.78;4970312;28;20047;-72
2023/09/04 08:08:57;;;;;;;6.30;4.70;;;;;;;19.68;77.36;102528.97;4977914;28;20093;-71
2023/09/04 08:11:24;;;;;;;6.28;3.83;;;;;;;19.76;77.88;102525.97;4969093;28;20038;-71
2023/09/04 08:13:51;;;;;;;6.78;4.15;;;;;;;19.87;75.73;102522.88;4978503;28;20069;-71
2023/09/04 08:16:18;;;;;;;8.05;4.15;;;;;;;19.94;76.24;102521.66;4977583;28;20066;-71
2023/09/04 08:18:45;;;;;;;5.30;3.95;;;;;;;20.04;75.80;102518.59;4979561;28;20120;-71
2023/09/04 08:21:12;;;;;;;6.63;4.20;;;;;;;20.13;74.36;102513.69;4968835;28;20053;-71
2023/09/04 08:23:39;;;;;;;6.38;4.15;;;;;;;20.21;74.41;102516.03;4980062;28;20073;-71
2023/09/04 08:26:07;;;;;;;5.57;3.88;;;;;;;20.28;73.55;102517.50;4982506;28;20104;-71
2023/09/04 08:28:34;;;;;;;5.95;3.80;;;;;;;20.36;72.32;102518.94;4981109;28;20050;-71
2023/09/04 08:31:01;;;;;;;4.88;3.95;;;;;;;20.40;72.19;102516.06;4979403;28;20096;-71
2023/09/04 08:33:28;;;;;;;4.82;3.95;;;;;;;20.42;73.12;102519.53;4961843;28;20043;-72
2023/09/04 08:35:58;;;;;;;4.95;3.83;;;;;;;20.50;73.40;102523.69;4967144;28;20134;-72
2023/09/04 08:38:25;;;;;;;5.85;3.85;;;;;;;20.59;73.76;102523.28;4981122;28;20538;-72
2023/09/04 08:40:58;;;;;;;6.10;3.55;;;;;;;20.72;74.16;102523.56;4972722;28;20051;-71
2023/09/04 08:43:31;;;;;;;7.35;3.63;;;;;;;20.87;73.19;102517.50;4965122;28;20379;-72
2023/09/04 08:46:00;;;;;;;4.28;3.10;;;;;;;21.02;70.20;102518.56;4967214;28;20046;-71
2023/09/04 08:48:32;;;;;;;4.78;3.13;;;;;;;21.03;70.58;102511.41;4968969;28;20057;-71
2023/09/04 08:50:59;;;;;;;6.00;3.58;;;;;;;21.09;72.06;102503.97;4966694;28;20051;-71
2023/09/04 08:53:26;;;;;;;5.95;3.05;;;;;;;21.19;69.61;102507.03;4969706;28;20055;-71
2023/09/04 08:55:55;;;;;;;4.38;2.90;;;;;;;21.26;70.31;102503.09;4965687;28;20054;-71
2023/09/04 08:58:22;;;;;;;4.43;2.85;;;;;;;21.35;69.45;102509.84;4968627;28;20050;-71
2023/09/04 09:00:50;;;;;;;5.00;2.80;;;;;;;21.41;69.73;102503.28;4975406;28;20614;-72
2023/09/04 09:03:17;;;;;;;6.65;3.00;;;;;;;21.47;70.31;102494.94;4975596;28;20116;-71
2023/09/04 09:05:48;;;;;;;5.95;3.00;;;;;;;21.59;68.38;102492.59;4966213;28;20039;-71
2023/09/04 09:08:16;;;;;;;4.82;2.90;;;;;;;21.67;66.41;102493.97;4980739;28;20037;-71
2023/09/04 09:10:46;;;;;;;4.43;2.58;;;;;;;21.71;67.45;102494.66;4975570;28;20034;-71
2023/09/04 09:13:14;;;;;;;4.35;2.78;;;;;;;21.83;67.48;102498.53;4976973;28;20152;-71
2023/09/04 09:15:44;;;;;;;4.32;2.63;;;;;;;21.92;67.58;102497.19;4979570;28;20043;-71
2023/09/04 09:18:12;;;;;;;5.78;2.47;;;;;;;22.01;68.39;102492.22;4983660;28;20046;-71
2023/09/04 09:20:42;;;;;;;3.92;2.15;;;;;;;22.14;67.76;102488.84;4983394;28;20141;-72
2023/09/04 09:23:09;;;;;;;5.95;2.72;;;;;;;22.22;66.55;102500.06;4976992;28;20256;-71
2023/09/04 09:25:38;;;;;;;7.07;2.92;;;;;;;22.30;65.29;102492.47;4974522;28;20121;-71
2023/09/04 09:28:07;;;;;;;4.10;2.30;;;;;;;22.40;65.92;102490.16;4981446;28;20046;-72
2023/09/04 09:30:39;;;;;;;5.25;2.65;;;;;;;22.51;64.75;102491.38;4972125;28;20046;-72
2023/09/04 09:33:12;;;;;;;3.13;2.30;;;;;;;22.56;65.51;102490.19;4983190;28;20049;-72
2023/09/04 09:35:40;;;;;;;;;;;;;;;22.64;65.12;102492.44;4968046;28;20039;-71
2023/09/04 09:38:08;;;;;;;5.72;3.10;;;;;;;22.75;63.93;102494.53;4979252;28;20389;-71
2023/09/04 09:40:37;;;;;;;4.38;2.78;;;;;;;22.75;65.41;102484.66;4975834;28;20562;-72
2023/09/04 09:43:05;;;;;;;4.07;2.40;;;;;;;22.80;64.83;102485.25;4960585;28;20053;-72
2023/09/04 09:45:35;;;;;;;5.07;2.97;;;;;;;22.82;64.33;102485.19;4970740;28;20108;-71
2023/09/04 09:48:07;;;;;;;3.90;2.70;;;;;;;22.86;64.22;102477.81;4975660;28;20085;-71
2023/09/04 09:50:39;;;;;;;5.45;3.00;;;;;;;22.88;63.02;102484.81;4958874;28;20054;-71
2023/09/04 09:53:07;;;;;;;5.20;3.20;;;;;;;22.92;62.27;102485.50;4972517;28;20117;-71
2023/09/04 09:55:35;;;;;;;5.35;2.63;;;;;;;22.93;63.21;102484.56;4961140;28;20038;-72
2023/09/04 09:58:04;;;;;;;5.50;2.33;;;;;;;23.01;62.41;102482.28;4970343;28;20457;-71
2023/09/04 10:00:34;;;;;;;7.07;3.05;;;;;;;23.10;62.15;102489.84;4981324;28;20046;-72
2023/09/04 10:03:01;;;;;;;3.63;2.40;;;;;;;23.20;62.34;102490.22;4975632;28;20137;-72
2023/09/04 10:05:30;;;;;;;5.63;2.22;;;;;;;23.26;60.89;102489.84;4959932;28;20078;-71
2023/09/04 10:08:03;;;;;;;3.78;2.10;;;;;;;23.34;61.73;102481.34;4969663;28;20494;-71
2023/09/04 10:10:39;;;;;;;4.55;2.38;;;;;;;23.48;62.06;102477.81;4968809;28;20064;-71
2023/09/04 10:13:19;;;;;;;4.20;2.13;;;;;;;23.58;60.61;102462.84;4987824;28;20046;-71
2023/09/04 10:15:47;;;;;;;4.18;2.40;;;;;;;23.66;60.29;102462.41;4972877;28;20606;-71
2023/09/04 10:18:28;;;;;;;5.80;2.40;;;;;;;23.75;61.05;102476.25;4947761;28;20158;-71
2023/09/04 10:20:57;;;;;;;6.95;2.40;;;;;;;23.81;59.65;102471.38;4979844;28;20074;-71
2023/09/04 10:23:37;;;;;;;4.30;2.20;;;;;;;23.88;60.47;102458.41;4976595;28;20211;-71
2023/09/04 10:26:24;;;;;;;5.22;2.90;;;;;;;23.97;59.53;102460.56;4974328;28;20121;-72
2023/09/04 10:29:05;;;;;;;3.42;2.08;;;;;;;24.03;59.86;102462.84;4973963;28;20103;-72
2023/09/04 10:31:35;;;;;;;6.35;2.45;;;;;;;24.15;59.29;102461.25;4967457;28;20101;-72
2023/09/04 10:34:03;;;;;;;3.72;2.63;;;;;;;24.25;58.02;102466.91;4987138;28;20046;-72
2023/09/04 10:36:31;;;;;;;4.82;2.60;;;;;;;24.34;57.31;102463.63;4986089;28;20657;-72
2023/09/04 10:39:01;;;;;;;6.65;2.65;;;;;;;24.42;56.25;102465.84;4973589;28;20172;-71
2023/09/04 10:41:31;;;;;;;5.10;2.53;;;;;;;24.48;55.53;102460.03;4965941;28;20089;-71
2023/09/04 10:43:58;;;;;;;5.40;2.45;;;;;;;24.53;54.34;102454.34;4959442;28;20050;-72
2023/09/04 10:46:25;;;;;;;5.15;2.65;;;;;;;24.54;54.50;102457.94;4964836;28;20113;-72
2023/09/04 10:48:53;;;;;;;6.28;2.40;;;;;;;24.59;55.79;102448.56;4970611;28;20053;-71
2023/09/04 10:51:38;;;;;;;3.97;2.22;;;;;;;24.72;54.20;102445.97;4986259;28;20058;-71
2023/09/04 10:54:07;;;;;;;5.97;2.25;;;;;;;24.79;53.66;102443.75;4962620;28;20088;-73
2023/09/04 10:57:00;;;;;;;3.25;1.75;;;;;;;24.84;54.06;102448.84;4966751;28;20043;-72
2023/09/04 10:59:28;;;;;;;3.53;2.30;;;;;;;24.91;53.82;102439.34;4974627;28;20045;-72
2023/09/04 11:01:55;;;;;;;4.05;2.15;;;;;;;24.99;55.03;102437.00;4984177;28;20073;-71
2023/09/04 11:04:35;;;;;;;4.43;2.10;;;;;;;25.11;50.40;102432.66;4966616;28;20101;-72
2023/09/04 11:07:20;;;;;;;4.40;2.20;;;;;;;25.10;50.67;102431.75;4961896;28;20046;-72
2023/09/04 11:09:48;;;;;;;3.92;1.90;;;;;;;25.14;50.02;102429.72;4974749;28;20047;-72
2023/09/04 11:12:22;;;;;;;5.47;1.83;;;;;;;25.25;48.28;102424.47;4955624;28;20038;-72
2023/09/04 11:14:54;;;;;;;4.20;1.70;;;;;;;25.30;48.95;102420.59;4971457;28;20046;-71
2023/09/04 11:17:27;;;;;;;2.72;1.92;;;;;;;25.35;49.14;102421.13;4971736;28;20466;-72
2023/09/04 11:19:55;;;;;;;2.83;1.80;;;;;;;25.41;49.84;102410.81;4977131;28;20047;-72
2023/09/04 11:22:26;;;;;;;2.15;1.65;;;;;;;25.56;49.76;102410.72;4959680;28;20557;-71
2023/09/04 11:24:54;;;;;;;4.32;1.73;;;;;;;25.62;47.78;102413.00;4964097;28;22039;-72